Portada
METAR-TAF:

METAR-TAF

Aeroports :

Sandakan, Malàisia

latitud: 05-54N, longitud: 118-04E, altitud: 12 m

Observació

L'informe es va fer fa 39 minuts, a les 23:00 UTC
Vent 9 kt del Nord-Est, variant entre Nord i Est
Temperatura 27°C
Humitat 89%
Pressió 1014 hPa
Visibilitat 10 km o més
Núvols disperses a una alçada de 1400 ft

METAR: WBKS 202300Z 05009KT 360V090 9999 SCT014 27/25 Q1014

Hora: 07:39 (23:39 UTC)

Pronòstic

L'informe es va fer fa 39 minuts, a les 23:00 UTC
Pronòstic vàlid del 21 a les 00 UTC al 22 a les 00 UTC
Vent 10 kt del Est/Nord-Est
Visibilitat 10 km o més
Núvols disperses a una alçada de 1500 ft

TAF: WBKS 202300Z 2100/2200 06010KT 9999 SCT015

Observacions i pronòstics meteorològics de més de 4000 aeroports (METAR i TAF).

Les estacions disponibles són els punts grocs i vermells al mapa.

Posi el ratolí al punt desitjat per veure el nom de l'estació.

Feu clic per veure les observacions i els pronòstics meteorològics.

Per canviar el mapa: feu clic els botons verds amb una creu de color negre per apropar; al botó verd amb un guió per allunyar la imatge; o en les fletxes verdes per a mapes adjacents.


METAR-TAF: